createdAt,value
2023-02-24T00:01:59.990Z,9.07
2023-02-24T00:04:32.973Z,9.16
2023-02-24T00:07:00.175Z,9.27
2023-02-24T00:09:28.221Z,9.08
2023-02-24T00:12:01.199Z,8.69
2023-02-24T00:14:33.850Z,8.77
2023-02-24T00:17:01.132Z,8.75
2023-02-24T00:19:32.744Z,8.76
2023-02-24T00:22:00.748Z,8.72
2023-02-24T00:24:27.892Z,8.66
2023-02-24T00:26:57.090Z,8.74
2023-02-24T00:29:24.246Z,8.79
2023-02-24T00:31:59.201Z,8.77
2023-02-24T00:34:27.353Z,8.56
2023-02-24T00:36:54.148Z,8.65
2023-02-24T00:39:30.811Z,8.65
2023-02-24T00:42:06.889Z,8.69
2023-02-24T00:44:41.677Z,8.81
2023-02-24T00:47:10.497Z,8.68
2023-02-24T00:49:42.762Z,8.79
2023-02-24T00:52:13.724Z,8.79
2023-02-24T00:54:44.342Z,8.74
2023-02-24T00:57:11.832Z,8.75
2023-02-24T00:59:39.040Z,8.56
2023-02-24T01:02:07.256Z,8.47
2023-02-24T01:04:34.926Z,8.49
2023-02-24T01:07:01.859Z,8.71
2023-02-24T01:09:30.881Z,8.53
2023-02-24T01:12:16.572Z,8.62
2023-02-24T01:14:47.008Z,8.52
2023-02-24T01:17:14.498Z,8.55
2023-02-24T01:19:41.021Z,8.81
2023-02-24T01:22:10.077Z,8.82
2023-02-24T01:24:41.267Z,8.72
2023-02-24T01:27:08.410Z,8.72
2023-02-24T01:29:39.414Z,8.58
2023-02-24T01:32:07.676Z,8.67
2023-02-24T01:34:35.096Z,8.57
2023-02-24T01:37:01.945Z,8.36
2023-02-24T01:39:28.458Z,8.46
2023-02-24T01:41:54.921Z,8.40
2023-02-24T01:44:25.219Z,8.49
2023-02-24T01:46:53.621Z,8.46
2023-02-24T01:49:36.978Z,8.30
2023-02-24T01:52:18.086Z,8.12
2023-02-24T01:54:50.282Z,8.10
2023-02-24T01:57:19.914Z,8.19
2023-02-24T01:59:50.043Z,8.04
2023-02-24T02:02:18.357Z,8.14
2023-02-24T02:04:58.526Z,8.24
2023-02-24T02:07:27.638Z,8.15
2023-02-24T02:09:55.104Z,8.08
2023-02-24T02:12:22.680Z,7.94
2023-02-24T02:14:53.716Z,7.95
2023-02-24T02:17:43.244Z,8.13
2023-02-24T02:20:15.800Z,8.30
2023-02-24T02:23:04.359Z,8.16
2023-02-24T02:25:36.538Z,8.01
2023-02-24T02:29:01.670Z,7.97
2023-02-24T02:31:29.298Z,8.01
2023-02-24T02:34:31.809Z,7.97
2023-02-24T02:37:27.024Z,8.11
2023-02-24T02:40:16.181Z,8.39
2023-02-24T02:43:18.789Z,8.09
2023-02-24T02:45:52.323Z,8.12
2023-02-24T02:48:22.648Z,8.01
2023-02-24T02:50:55.613Z,8.11
2023-02-24T02:53:31.572Z,8.17
2023-02-24T02:56:22.089Z,8.13
2023-02-24T02:58:53.957Z,8.02
2023-02-24T03:01:25.310Z,8.04
2023-02-24T03:03:56.014Z,8.10
2023-02-24T03:06:30.235Z,8.16
2023-02-24T03:09:18.010Z,8.19
2023-02-24T03:11:49.292Z,8.02
2023-02-24T03:14:20.351Z,8.05
2023-02-24T03:16:49.306Z,8.10
2023-02-24T03:19:21.021Z,8.00
2023-02-24T03:21:58.194Z,7.96
2023-02-24T03:24:24.658Z,7.83
2023-02-24T03:26:58.495Z,7.72
2023-02-24T03:29:38.883Z,7.91
2023-02-24T03:32:12.743Z,7.90
2023-02-24T03:34:51.124Z,7.76
2023-02-24T03:37:25.609Z,7.65
2023-02-24T03:39:57.732Z,7.83
2023-02-24T03:42:28.662Z,7.90
2023-02-24T03:44:58.249Z,7.94
2023-02-24T03:47:25.975Z,7.87
2023-02-24T03:49:53.155Z,7.80
2023-02-24T03:52:34.884Z,7.77
2023-02-24T03:55:16.815Z,7.69
2023-02-24T03:58:12.782Z,7.56
2023-02-24T04:00:48.499Z,7.64
2023-02-24T04:03:39.487Z,7.57
2023-02-24T04:06:38.332Z,7.65
2023-02-24T04:09:36.818Z,7.55
2023-02-24T04:12:27.070Z,7.47
2023-02-24T04:14:57.285Z,7.56
2023-02-24T04:17:32.147Z,7.59
2023-02-24T04:20:01.414Z,7.63
2023-02-24T04:22:29.413Z,7.52
2023-02-24T04:24:59.799Z,7.45
2023-02-24T04:27:28.252Z,7.52
2023-02-24T04:30:00.074Z,7.47
2023-02-24T04:32:29.478Z,7.45
2023-02-24T04:35:06.941Z,7.52
2023-02-24T04:37:37.329Z,7.47
2023-02-24T04:40:13.424Z,7.46
2023-02-24T04:42:49.350Z,7.47
2023-02-24T04:45:28.163Z,7.44
2023-02-24T04:47:58.016Z,7.50
2023-02-24T04:50:26.012Z,7.35
2023-02-24T04:53:01.336Z,7.51
2023-02-24T04:55:32.976Z,7.59
2023-02-24T04:58:01.035Z,7.38
2023-02-24T05:00:33.456Z,7.31
2023-02-24T05:03:01.844Z,7.39
2023-02-24T05:05:28.787Z,7.44
2023-02-24T05:07:57.585Z,7.51
2023-02-24T05:10:28.140Z,7.59
2023-02-24T05:12:58.265Z,7.50
2023-02-24T05:15:31.249Z,7.66
2023-02-24T05:18:07.819Z,7.80
2023-02-24T05:21:00.358Z,7.89
2023-02-24T05:23:39.370Z,7.76
2023-02-24T05:26:08.579Z,7.56
2023-02-24T05:28:40.546Z,7.75
2023-02-24T05:31:15.042Z,7.83
2023-02-24T05:33:43.848Z,7.85
2023-02-24T05:36:15.196Z,7.75
2023-02-24T05:38:41.893Z,7.67
2023-02-24T05:41:17.011Z,7.74
2023-02-24T05:43:53.298Z,7.66
2023-02-24T05:46:20.437Z,7.68
2023-02-24T05:48:51.203Z,7.66
2023-02-24T05:51:17.725Z,7.51
2023-02-24T05:53:44.241Z,7.39
2023-02-24T05:56:11.114Z,7.28
2023-02-24T05:58:39.301Z,7.28
2023-02-24T06:01:16.166Z,7.38
2023-02-24T06:03:47.895Z,7.43
2023-02-24T06:06:17.745Z,7.34
2023-02-24T06:08:50.916Z,7.37
2023-02-24T06:11:20.672Z,7.21
2023-02-24T06:13:48.059Z,7.20
2023-02-24T06:16:17.150Z,7.25
2023-02-24T06:18:47.893Z,7.26
2023-02-24T06:21:15.238Z,7.41
2023-02-24T06:23:41.747Z,7.30
2023-02-24T06:26:19.205Z,7.29
2023-02-24T06:28:47.998Z,7.32
2023-02-24T06:31:15.171Z,7.35
2023-02-24T06:33:42.098Z,7.25
2023-02-24T06:36:09.085Z,7.28
2023-02-24T06:38:36.967Z,7.37
2023-02-24T06:41:10.721Z,7.27
2023-02-24T06:43:43.223Z,7.12
2023-02-24T06:46:11.979Z,7.04
2023-02-24T06:48:38.805Z,7.18
2023-02-24T06:51:06.662Z,7.19
2023-02-24T06:53:35.895Z,7.07
2023-02-24T06:56:07.277Z,7.14
2023-02-24T06:58:33.923Z,7.06
2023-02-24T07:01:02.644Z,7.14
2023-02-24T07:03:47.202Z,7.13
2023-02-24T07:06:28.582Z,7.30
2023-02-24T07:08:58.337Z,7.29
2023-02-24T07:11:25.932Z,7.26
2023-02-24T07:13:54.593Z,7.68
2023-02-24T07:16:25.686Z,7.74
2023-02-24T07:18:56.966Z,7.87
2023-02-24T07:21:25.533Z,7.73
2023-02-24T07:23:58.912Z,7.81
2023-02-24T07:26:27.873Z,7.63
2023-02-24T07:28:55.211Z,7.83
2023-02-24T07:31:24.458Z,7.91
2023-02-24T07:33:57.281Z,7.86
2023-02-24T07:36:24.824Z,7.61
2023-02-24T07:38:53.946Z,7.56
2023-02-24T07:41:23.179Z,7.63
2023-02-24T07:43:51.848Z,7.64
2023-02-24T07:46:24.633Z,7.67
2023-02-24T07:48:56.141Z,7.84
2023-02-24T07:51:25.908Z,7.77
2023-02-24T07:53:58.926Z,7.47
2023-02-24T07:56:27.424Z,7.65
2023-02-24T07:58:59.302Z,7.58
2023-02-24T08:01:38.761Z,7.74
2023-02-24T08:04:08.174Z,7.89
2023-02-24T08:06:46.203Z,7.98
2023-02-24T08:09:42.860Z,8.08
2023-02-24T08:12:09.505Z,8.03
2023-02-24T08:14:44.484Z,8.08
2023-02-24T08:17:12.175Z,7.95
2023-02-24T08:19:41.680Z,7.93
2023-02-24T08:22:20.933Z,8.07
2023-02-24T08:24:51.041Z,8.17
2023-02-24T08:27:20.258Z,8.16
2023-02-24T08:30:18.043Z,8.31
2023-02-24T08:32:45.015Z,8.38
2023-02-24T08:35:17.133Z,8.52
2023-02-24T08:37:49.116Z,8.40
2023-02-24T08:40:34.300Z,8.62
2023-02-24T08:43:16.419Z,8.79
2023-02-24T08:45:51.895Z,8.98
2023-02-24T08:48:32.293Z,8.86
2023-02-24T08:51:02.467Z,8.71
2023-02-24T08:53:31.548Z,8.93
2023-02-24T08:56:00.470Z,9.09
2023-02-24T08:58:27.122Z,9.16
2023-02-24T09:00:59.505Z,9.21
2023-02-24T09:03:28.902Z,9.23
2023-02-24T09:05:58.146Z,9.14
2023-02-24T09:08:24.654Z,9.13
2023-02-24T09:10:52.068Z,8.94
2023-02-24T09:13:18.973Z,8.96
2023-02-24T09:15:45.482Z,9.37
2023-02-24T09:18:14.445Z,9.57
2023-02-24T09:20:56.402Z,9.75
2023-02-24T09:23:29.886Z,9.99
2023-02-24T09:25:57.181Z,10.52
2023-02-24T09:28:27.874Z,10.65
2023-02-24T09:30:57.457Z,11.76
2023-02-24T09:33:41.196Z,12.32
2023-02-24T09:36:13.173Z,12.58
2023-02-24T09:38:59.525Z,13.07
2023-02-24T09:42:18.421Z,13.51
2023-02-24T09:44:52.674Z,13.82
2023-02-24T09:47:31.150Z,14.17
2023-02-24T09:50:04.520Z,14.96
2023-02-24T09:52:41.746Z,14.76
2023-02-24T09:55:25.086Z,15.70
2023-02-24T09:58:18.818Z,16.31
2023-02-24T10:01:21.117Z,16.12
2023-02-24T10:04:11.658Z,16.97
2023-02-24T10:06:49.324Z,17.03
2023-02-24T10:09:49.248Z,17.69
2023-02-24T10:12:18.231Z,17.42
2023-02-24T10:15:17.222Z,16.73
2023-02-24T10:17:55.382Z,17.23
2023-02-24T10:20:39.313Z,17.55
2023-02-24T10:23:29.688Z,17.33
2023-02-24T10:26:06.809Z,17.49
2023-02-24T10:28:46.316Z,17.98
2023-02-24T10:31:27.031Z,18.23
2023-02-24T10:34:01.729Z,18.64
2023-02-24T10:36:35.360Z,18.82
2023-02-24T10:39:17.309Z,18.56
2023-02-24T10:41:46.825Z,19.19
2023-02-24T10:44:20.820Z,19.54
2023-02-24T10:46:47.900Z,19.66
2023-02-24T10:49:16.860Z,19.48
2023-02-24T10:51:51.234Z,19.63
2023-02-24T10:54:34.620Z,20.17
2023-02-24T10:57:15.456Z,20.22
2023-02-24T11:00:16.105Z,20.21
2023-02-24T11:02:57.627Z,19.57
2023-02-24T11:05:27.326Z,19.90
2023-02-24T11:08:11.080Z,20.23
2023-02-24T11:10:58.723Z,20.50
2023-02-24T11:13:45.680Z,20.56
2023-02-24T11:16:31.013Z,19.78
2023-02-24T11:18:57.969Z,20.40
2023-02-24T11:21:26.533Z,20.69
2023-02-24T11:23:58.485Z,20.80
2023-02-24T11:26:43.647Z,20.29
2023-02-24T11:29:31.368Z,20.34
2023-02-24T11:32:22.187Z,19.94
2023-02-24T11:35:12.622Z,19.69
2023-02-24T11:37:53.871Z,19.75
2023-02-24T11:40:25.647Z,19.09
2023-02-24T11:43:04.200Z,18.98
2023-02-24T11:45:51.672Z,18.97
2023-02-24T11:48:21.086Z,19.44
2023-02-24T11:50:53.833Z,19.90
2023-02-24T11:53:29.195Z,20.36
2023-02-24T11:56:26.201Z,21.00
2023-02-24T11:59:18.952Z,21.14
2023-02-24T12:01:48.369Z,20.97
2023-02-24T12:04:37.305Z,21.10
2023-02-24T12:07:25.267Z,21.12
2023-02-24T12:10:16.678Z,21.26
2023-02-24T12:12:46.649Z,21.51
2023-02-24T12:15:25.268Z,21.23
2023-02-24T12:18:18.055Z,21.19
2023-02-24T12:20:52.692Z,21.52
2023-02-24T12:23:39.541Z,21.56
2023-02-24T12:26:18.235Z,21.61
2023-02-24T12:28:58.886Z,21.43
2023-02-24T12:31:54.532Z,21.58
2023-02-24T12:34:30.122Z,21.26
2023-02-24T12:37:16.716Z,21.60
2023-02-24T12:40:12.741Z,21.50
2023-02-24T12:43:17.150Z,21.24
2023-02-24T12:45:52.526Z,21.23
2023-02-24T12:48:50.430Z,21.09
2023-02-24T12:51:21.408Z,21.29
2023-02-24T12:54:04.949Z,21.13
2023-02-24T12:56:45.613Z,20.66
2023-02-24T12:59:19.224Z,20.32
2023-02-24T13:01:55.150Z,19.49
2023-02-24T13:04:40.333Z,18.88
2023-02-24T13:07:19.353Z,18.52
2023-02-24T13:10:09.537Z,18.33
2023-02-24T13:12:57.707Z,18.65
2023-02-24T13:15:27.851Z,18.93
2023-02-24T13:17:57.955Z,19.16
2023-02-24T13:20:34.221Z,19.65
2023-02-24T13:23:03.478Z,19.92
2023-02-24T13:25:38.429Z,20.24
2023-02-24T13:28:21.372Z,20.28
2023-02-24T13:30:58.289Z,20.76
2023-02-24T13:33:30.346Z,20.71
2023-02-24T13:36:13.475Z,20.55
2023-02-24T13:38:41.977Z,20.69
2023-02-24T13:41:17.831Z,20.68
2023-02-24T13:43:53.518Z,20.51
2023-02-24T13:46:20.095Z,20.03
2023-02-24T13:48:59.718Z,19.52
2023-02-24T13:51:52.478Z,19.03
2023-02-24T13:54:21.861Z,18.58
2023-02-24T13:56:57.350Z,18.90
2023-02-24T13:59:35.689Z,18.45
2023-02-24T14:02:19.630Z,18.33
2023-02-24T14:04:52.047Z,18.07
2023-02-24T14:07:25.778Z,17.97
2023-02-24T14:09:57.237Z,17.95
2023-02-24T14:12:26.774Z,17.49
2023-02-24T14:14:54.098Z,17.36
2023-02-24T14:17:29.470Z,17.28
2023-02-24T14:20:07.358Z,16.97
2023-02-24T14:22:34.754Z,16.97
2023-02-24T14:25:03.406Z,16.93
2023-02-24T14:27:30.713Z,16.49
2023-02-24T14:29:57.611Z,16.52
2023-02-24T14:32:26.734Z,16.64
2023-02-24T14:34:54.972Z,16.56
2023-02-24T14:37:25.999Z,16.49
2023-02-24T14:39:59.539Z,16.32
2023-02-24T14:42:28.003Z,16.36
2023-02-24T14:44:57.728Z,15.92
2023-02-24T14:47:27.953Z,16.03
2023-02-24T14:50:02.493Z,15.96
2023-02-24T14:52:44.985Z,15.90
2023-02-24T14:55:20.948Z,15.83
2023-02-24T14:58:01.885Z,15.89
2023-02-24T15:00:37.018Z,15.42
2023-02-24T15:03:09.363Z,15.60
2023-02-24T15:05:41.471Z,15.58
2023-02-24T15:08:29.413Z,15.46
2023-02-24T15:10:56.322Z,15.57
2023-02-24T15:13:44.827Z,15.48
2023-02-24T15:16:18.061Z,15.45
2023-02-24T15:18:49.371Z,15.35
2023-02-24T15:21:28.619Z,15.38
2023-02-24T15:24:03.492Z,15.35
2023-02-24T15:26:33.850Z,15.26
2023-02-24T15:29:13.986Z,15.32
2023-02-24T15:31:47.216Z,15.42
2023-02-24T15:34:22.356Z,15.30
2023-02-24T15:36:51.271Z,15.36
2023-02-24T15:39:23.224Z,15.36
2023-02-24T15:41:52.415Z,15.36
2023-02-24T15:44:52.936Z,15.28
2023-02-24T15:47:32.625Z,15.37
2023-02-24T15:49:59.406Z,15.37
2023-02-24T15:52:28.685Z,15.26
2023-02-24T15:54:57.961Z,15.28
2023-02-24T15:57:25.680Z,15.23
2023-02-24T15:59:52.593Z,15.28
2023-02-24T16:02:21.197Z,15.26
2023-02-24T16:04:49.025Z,15.29
2023-02-24T16:07:20.218Z,15.22
2023-02-24T16:09:48.929Z,15.21
2023-02-24T16:12:21.837Z,15.12
2023-02-24T16:14:50.308Z,15.14
2023-02-24T16:17:32.033Z,15.07
2023-02-24T16:19:59.189Z,15.11
2023-02-24T16:22:26.340Z,15.01
2023-02-24T16:24:52.889Z,14.97
2023-02-24T16:27:22.063Z,14.85
2023-02-24T16:29:49.649Z,14.74
2023-02-24T16:32:16.415Z,14.62
2023-02-24T16:34:43.085Z,14.51
2023-02-24T16:37:21.845Z,14.34
2023-02-24T16:39:49.474Z,14.24
2023-02-24T16:42:17.650Z,14.14
2023-02-24T16:44:44.633Z,14.00
2023-02-24T16:47:17.113Z,13.95
2023-02-24T16:49:43.669Z,13.84
2023-02-24T16:52:12.908Z,13.82
2023-02-24T16:54:39.438Z,13.80
2023-02-24T16:57:06.174Z,13.69
2023-02-24T16:59:32.630Z,13.64
2023-02-24T17:01:59.635Z,13.56
2023-02-24T17:04:26.200Z,13.43
2023-02-24T17:06:52.766Z,13.39
2023-02-24T17:09:19.287Z,13.23
2023-02-24T17:11:45.928Z,13.30
2023-02-24T17:14:20.276Z,13.19
2023-02-24T17:16:47.198Z,13.24
2023-02-24T17:19:14.141Z,13.26
2023-02-24T17:21:44.286Z,13.16
2023-02-24T17:24:19.159Z,13.17
2023-02-24T17:26:46.574Z,13.28
2023-02-24T17:29:14.616Z,13.23
2023-02-24T17:31:42.298Z,13.19
2023-02-24T17:34:09.430Z,13.11
2023-02-24T17:36:36.028Z,13.10
2023-02-24T17:39:02.585Z,13.06
2023-02-24T17:41:29.481Z,13.12
2023-02-24T17:43:56.016Z,13.06
2023-02-24T17:46:23.059Z,13.06
2023-02-24T17:48:49.842Z,13.02
2023-02-24T17:51:18.209Z,12.99
2023-02-24T17:53:45.011Z,13.02
2023-02-24T17:56:12.175Z,12.95
2023-02-24T17:58:39.192Z,12.89
2023-02-24T18:01:06.268Z,12.87
2023-02-24T18:03:34.595Z,12.91
2023-02-24T18:06:04.198Z,12.87
2023-02-24T18:08:33.465Z,12.90
2023-02-24T18:11:00.870Z,12.93
2023-02-24T18:13:29.201Z,12.90
2023-02-24T18:15:56.311Z,12.84
2023-02-24T18:18:23.806Z,12.79
2023-02-24T18:20:50.353Z,12.74
2023-02-24T18:23:17.187Z,12.74
2023-02-24T18:25:43.734Z,12.72
2023-02-24T18:28:10.254Z,12.74
2023-02-24T18:30:39.530Z,12.70
2023-02-24T18:33:06.343Z,12.71
2023-02-24T18:35:33.013Z,12.67
2023-02-24T18:37:59.547Z,12.66
2023-02-24T18:40:27.075Z,12.63
2023-02-24T18:42:53.816Z,12.60
2023-02-24T18:45:21.996Z,12.57
2023-02-24T18:47:51.487Z,12.60
2023-02-24T18:50:18.221Z,12.61
2023-02-24T18:52:44.791Z,12.59
2023-02-24T18:55:11.260Z,12.54
2023-02-24T18:57:37.799Z,12.53
2023-02-24T19:00:05.787Z,12.48
2023-02-24T19:02:32.371Z,12.44
2023-02-24T19:04:58.935Z,12.41
2023-02-24T19:07:25.469Z,12.54
2023-02-24T19:09:52.128Z,12.36
2023-02-24T19:12:20.404Z,12.38
2023-02-24T19:14:51.320Z,12.38
2023-02-24T19:17:18.113Z,12.34
2023-02-24T19:19:46.621Z,12.30
2023-02-24T19:22:13.279Z,12.27
2023-02-24T19:24:41.057Z,12.25
2023-02-24T19:27:08.663Z,12.24
2023-02-24T19:29:35.493Z,12.25
2023-02-24T19:32:02.167Z,12.27
2023-02-24T19:34:28.791Z,12.28
2023-02-24T19:36:55.289Z,12.28
2023-02-24T19:39:21.989Z,12.33
2023-02-24T19:41:49.783Z,12.41
2023-02-24T19:44:16.936Z,12.39
2023-02-24T19:46:43.495Z,12.29
2023-02-24T19:49:10.010Z,12.19
2023-02-24T19:51:36.627Z,12.06
2023-02-24T19:54:05.889Z,12.06
2023-02-24T19:56:36.871Z,11.95
2023-02-24T19:59:06.112Z,11.86
2023-02-24T20:01:33.219Z,11.75
2023-02-24T20:04:02.051Z,11.72
2023-02-24T20:06:37.249Z,11.59
2023-02-24T20:09:10.205Z,11.54
2023-02-24T20:11:38.783Z,11.48
2023-02-24T20:14:06.622Z,11.36
2023-02-24T20:16:34.801Z,11.40
2023-02-24T20:19:01.853Z,11.46
2023-02-24T20:21:28.804Z,11.37
2023-02-24T20:23:55.355Z,11.27
2023-02-24T20:26:22.202Z,11.21
2023-02-24T20:28:49.019Z,11.20
2023-02-24T20:31:19.196Z,11.16
2023-02-24T20:33:47.744Z,11.14
2023-02-24T20:36:26.026Z,11.08
2023-02-24T20:38:53.511Z,11.15
2023-02-24T20:41:21.570Z,11.22
2023-02-24T20:43:48.565Z,11.18
2023-02-24T20:46:18.980Z,11.14
2023-02-24T20:48:45.682Z,11.12
2023-02-24T20:51:12.637Z,11.05
2023-02-24T20:53:54.725Z,10.95
2023-02-24T20:56:23.790Z,10.91
2023-02-24T20:58:53.054Z,10.84
2023-02-24T21:01:21.145Z,10.89
2023-02-24T21:03:48.277Z,10.86
2023-02-24T21:06:17.132Z,10.86
2023-02-24T21:08:44.447Z,10.85
2023-02-24T21:11:12.095Z,10.77
2023-02-24T21:13:43.864Z,10.76
2023-02-24T21:16:11.847Z,10.68
2023-02-24T21:18:40.391Z,10.59
2023-02-24T21:21:08.484Z,10.57
2023-02-24T21:23:35.879Z,10.45
2023-02-24T21:26:02.711Z,10.42
2023-02-24T21:28:29.403Z,10.38
2023-02-24T21:30:56.534Z,10.38
2023-02-24T21:33:23.170Z,10.39
2023-02-24T21:36:00.753Z,10.48
2023-02-24T21:38:27.266Z,10.47
2023-02-24T21:40:54.312Z,10.36
2023-02-24T21:43:21.745Z,10.36
2023-02-24T21:45:48.308Z,10.39
2023-02-24T21:48:14.905Z,10.42
2023-02-24T21:50:41.433Z,10.45
2023-02-24T21:53:08.087Z,10.39
2023-02-24T21:55:37.056Z,10.37
2023-02-24T21:58:03.556Z,10.39
2023-02-24T22:00:30.314Z,10.35
2023-02-24T22:02:57.026Z,10.31
2023-02-24T22:05:25.813Z,10.30
2023-02-24T22:07:53.057Z,10.26
2023-02-24T22:10:22.377Z,10.22
2023-02-24T22:12:50.741Z,10.11
2023-02-24T22:15:17.349Z,10.03
2023-02-24T22:17:43.853Z,9.99
2023-02-24T22:20:13.346Z,9.97
2023-02-24T22:22:41.933Z,9.99
2023-02-24T22:25:12.511Z,10.00
2023-02-24T22:27:39.721Z,10.01
2023-02-24T22:30:08.015Z,9.98
2023-02-24T22:32:35.612Z,10.00
2023-02-24T22:35:02.263Z,10.03
2023-02-24T22:37:29.849Z,9.99
2023-02-24T22:39:56.454Z,9.94
2023-02-24T22:42:23.033Z,9.83
2023-02-24T22:44:49.506Z,9.81
2023-02-24T22:47:16.946Z,9.83
2023-02-24T22:49:43.645Z,9.93
2023-02-24T22:52:12.047Z,9.92
2023-02-24T22:54:38.578Z,9.99
2023-02-24T22:57:05.201Z,10.05
2023-02-24T22:59:31.708Z,10.07
2023-02-24T23:01:59.766Z,10.02
2023-02-24T23:04:29.269Z,9.90
2023-02-24T23:06:57.201Z,9.67
2023-02-24T23:09:24.139Z,9.50
2023-02-24T23:11:50.902Z,9.52
2023-02-24T23:14:17.799Z,9.36
2023-02-24T23:16:46.456Z,9.24
2023-02-24T23:19:18.568Z,9.12
2023-02-24T23:21:51.174Z,8.99
2023-02-24T23:24:18.606Z,9.20
2023-02-24T23:26:47.867Z,9.14
2023-02-24T23:29:17.526Z,9.06
2023-02-24T23:31:45.391Z,8.99
2023-02-24T23:34:12.531Z,9.06
2023-02-24T23:36:45.253Z,9.08
2023-02-24T23:39:14.392Z,9.05
2023-02-24T23:41:44.307Z,9.16
2023-02-24T23:44:12.524Z,9.08
2023-02-24T23:46:39.135Z,8.91
2023-02-24T23:49:05.734Z,8.86
2023-02-24T23:51:46.899Z,8.67
2023-02-24T23:54:13.927Z,8.66
2023-02-24T23:56:41.129Z,8.60
2023-02-24T23:59:07.646Z,8.45
